Flight Track Log - Related Links

Times and Time Zones

All times are in EDT time to prevent confusion due to time zone crossing. See the AWI4053 flight status page for this flight to view local times or setup timezone preferences in your user account.

Time Position Orientation Groundspeed Altitude Reporting Facility
EDT Latitude Longitude Course Direction KTS MPH feet Rate Location/Type
Mon 10:42:00 AM 38.4932 -77.2334 203° Southwest  Level Estimated
Mon 10:43:00 AM 38.4034 -77.2820 203° Southwest  Level Estimated
Mon 10:44:00 AM 38.3137 -77.3305 203° Southwest  Level Estimated
Mon 10:45:00 AM 38.2239 -77.3788 203° Southwest  Level Estimated
Mon 10:46:00 AM 38.1341 -77.4271 203° Southwest  Level Estimated
Mon 10:47:00 AM 38.0443 -77.4752 203° Southwest  Level Estimated
Mon 10:48:00 AM 37.9544 -77.5232 203° Southwest  Level Estimated
Mon 10:49:00 AM 37.8646 -77.5711 203° Southwest  Level Estimated
Mon 10:50:00 AM 37.7747 -77.6189 203° Southwest  Level Estimated
Mon 10:51:00 AM 37.6848 -77.6666 203° Southwest  Level Estimated
Mon 10:52:00 AM 37.5949 -77.7141 203° Southwest  Level Estimated
Mon 10:53:00 AM 37.5049 -77.7615 203° Southwest  Level Estimated
Mon 10:54:00 AM 37.4150 -77.8089 203° Southwest  Level Estimated
Mon 10:55:00 AM 37.3250 -77.8561 203° Southwest  Level Estimated
Mon 10:56:00 AM 37.2350 -77.9032 203° Southwest  Level Estimated
Mon 10:57:00 AM 37.1450 -77.9501 203° Southwest  Level Estimated
Mon 10:58:00 AM 37.0550 -77.9970 203° Southwest  Level Estimated
Mon 10:59:00 AM 36.9649 -78.0438 203° Southwest  Level Estimated
Mon 11:00:00 AM 36.8749 -78.0904 203° Southwest  Level Estimated
Mon 11:01:00 AM 36.7848 -78.1370 202° Southwest  Level Estimated
Mon 11:02:00 AM 36.6947 -78.1834 202° Southwest  Level Estimated
Mon 11:03:00 AM 36.6046 -78.2297 202° Southwest  Level Estimated
Mon 11:04:00 AM 36.5144 -78.2759 202° Southwest  Level Estimated
Mon 11:05:00 AM 36.4243 -78.3220 202° Southwest  Level Estimated
Mon 11:06:00 AM 36.3341 -78.3680 202° Southwest  Level Estimated
Mon 11:07:00 AM 36.2439 -78.4139 202° Southwest  Level Estimated
Mon 11:08:00 AM 36.1537 -78.4597 202° Southwest  Level Estimated
Mon 11:09:00 AM 36.0635 -78.5054 202° Southwest  Level Estimated
Mon 11:10:00 AM 35.9733 -78.5509 202° Southwest  Level Estimated
Mon 11:11:00 AM 35.8830 -78.5964 202° Southwest  Level Estimated
Mon 11:12:00 AM 35.7927 -78.6418 202° Southwest  Level Estimated
Mon 11:13:00 AM 35.7024 -78.6870 202° Southwest  Level Estimated
Mon 11:14:00 AM 35.6121 -78.7322 202° Southwest  Level Estimated
Mon 11:15:00 AM 35.5218 -78.7773 202° Southwest  Level Estimated
Mon 11:16:00 AM 35.4314 -78.8222 202° Southwest  Level Estimated
Mon 11:17:00 AM 35.3411 -78.8671 202° Southwest  Level Estimated
Mon 11:18:00 AM 35.2507 -78.9118 202° Southwest  Level Estimated
Mon 11:19:00 AM 35.1603 -78.9565 202° Southwest  Level Estimated
Mon 11:20:00 AM 35.0699 -79.0011 202° Southwest  Level Estimated
Mon 11:21:00 AM 34.9795 -79.0455 202° Southwest  Level Estimated
Mon 11:22:00 AM 34.8890 -79.0899 202° Southwest  Level Estimated
Mon 11:23:00 AM 34.7986 -79.1341 202° Southwest  Level Estimated
Mon 11:24:00 AM 34.7081 -79.1783 202° Southwest  Level Estimated
Mon 11:25:00 AM 34.6176 -79.2224 202° Southwest  Level Estimated
Mon 11:26:00 AM 34.5271 -79.2663 202° Southwest  Level Estimated
Mon 11:27:00 AM 34.4366 -79.3102 202° Southwest  Level Estimated
Mon 11:28:00 AM 34.3461 -79.3540 202° Southwest  Level Estimated
Mon 11:29:00 AM 34.2555 -79.3977 202° Southwest  Level Estimated
Mon 11:30:00 AM 34.1649 -79.4413 202° Southwest  Level Estimated
Mon 11:31:00 AM 34.0743 -79.4848 202° Southwest  Level Estimated
Mon 11:32:00 AM 33.9837 -79.5282 202° Southwest  Level Estimated
Mon 11:33:00 AM 33.8931 -79.5715 202° Southwest  Level Estimated
Mon 11:34:00 AM 33.8025 -79.6147 202° Southwest  Level Estimated
Mon 11:35:00 AM 33.7119 -79.6579 202° Southwest  Level Estimated
Mon 11:36:00 AM 33.6212 -79.7009 202° Southwest  Level Estimated
Mon 11:37:00 AM 33.5305 -79.7439 202° Southwest  Level Estimated
Mon 11:38:00 AM 33.4398 -79.7867 202° Southwest  Level Estimated
Mon 11:39:00 AM 33.3492 -79.8295 202° Southwest  Level Estimated
Mon 11:40:00 AM 33.2584 -79.8722 201° Southwest  Level Estimated
Mon 11:41:00 AM 33.1677 -79.9148 201° Southwest  Level Estimated
Mon 11:42:00 AM 33.0770 -79.9573 201° Southwest  Level Estimated
Mon 11:43:00 AM 32.9862 -79.9997 201° Southwest  Level Estimated
Mon 11:44:00 AM 32.8986 -80.0405 201° Southwest  Level Estimated
Mon 11:45:00 AM 32.8986 -80.0405 121° Southeast  Level Estimated
Mon 11:46:00 AM 32.8986 -80.0405 121° Southeast  Level Estimated
Mon 11:47:00 AM 32.8986 -80.0405 121° Southeast  Level Estimated
Mon 11:48:00 AM 32.8986 -80.0405 121° Southeast  Level Estimated
Mon 11:49:00 AM 32.8986 -80.0405 121° Southeast  Level Estimated
Mon 11:50:00 AM 32.8986 -80.0405 121° Southeast  Level Estimated
Mon 11:51:00 AM 32.8986 -80.0405 121° Southeast  Level Estimated
Mon 11:52:00 AM 32.8986 -80.0405 121° Southeast  Level Estimated
Mon 11:53:00 AM 32.8986 -80.0405 121° Southeast  Level Estimated
Mon 11:54:00 AM 32.8986 -80.0405 121° Southeast  Level Estimated
Mon 11:55:00 AM 32.8986 -80.0405 121° Southeast  Level Estimated
Mon 11:56:00 AM 32.8986 -80.0405 121° Southeast  Level Estimated
Mon 11:57:00 AM 32.8986 -80.0405 121° Southeast  Level Estimated
Mon 11:58:00 AM 32.8986 -80.0405 121° Southeast  Level Estimated

Login

Don't have an account? Register now (free) for customized features, flight alerts, and more!